Time;durP1;ratioP1;P1;durP2;ratioP2;P2;SDS_P1;SDS_P2;PMS_P1;PMS_P2;Temp;Humidity;BMP_temperature;BMP_pressure;BME280_temperature;BME280_humidity;BME280_pressure;Samples;Min_cycle;Max_cycle;Signal;HPM_P1;HPM_P2
2022/06/27 00:00:42;;;;;;;5.78;2.92;;;;;;;;;;6242977;23;20221;-89
2022/06/27 00:03:48;;;;;;;5.15;2.70;;;;;;;;;;6242221;23;20189;-89
2022/06/27 00:06:54;;;;;;;4.60;2.85;;;;;;;;;;6241260;23;20186;-89
2022/06/27 00:10:00;;;;;;;5.70;3.03;;;;;;;;;;6240414;23;20170;-89
2022/06/27 00:13:05;;;;;;;5.88;2.85;;;;;;;;;;6259779;22;20197;-89
2022/06/27 00:16:10;;;;;;;4.78;2.65;;;;;;;;;;6258241;23;20170;-89
2022/06/27 00:19:15;;;;;;;5.82;2.50;;;;;;;;;;6240477;23;20170;-89
2022/06/27 00:22:22;;;;;;;5.18;2.80;;;;;;;;;;6241108;23;20170;-89
2022/06/27 00:25:27;;;;;;;5.00;2.38;;;;;;;;;;6240562;23;20163;-87
2022/06/27 00:28:32;;;;;;;4.57;2.97;;;;;;;;;;6258225;23;20221;-88
2022/06/27 00:31:37;;;;;;;5.95;2.95;;;;;;;;;;6240886;22;20163;-89
2022/06/27 00:34:43;;;;;;;5.63;2.78;;;;;;;;;;6239738;22;20166;-86
2022/06/27 00:37:50;;;;;;;8.40;2.90;;;;;;;;;;6240683;23;20190;-89
2022/06/27 00:40:55;;;;;;;4.93;3.03;;;;;;;;;;6240884;23;20163;-88
2022/06/27 00:44:01;;;;;;;5.63;2.88;;;;;;;;;;6241852;23;20189;-88
2022/06/27 00:47:06;;;;;;;3.65;2.70;;;;;;;;;;6241894;23;20178;-88
2022/06/27 00:50:11;;;;;;;5.28;2.70;;;;;;;;;;6241852;23;20231;-89
2022/06/27 00:53:18;;;;;;;3.55;2.67;;;;;;;;;;6242408;23;20235;-91
2022/06/27 00:56:24;;;;;;;5.97;2.88;;;;;;;;;;6242774;23;20182;-89
2022/06/27 00:59:29;;;;;;;9.02;3.08;;;;;;;;;;6240203;23;20171;-87
2022/06/27 01:02:34;;;;;;;6.88;3.33;;;;;;;;;;6257931;23;20181;-90
2022/06/27 01:05:51;;;;;;;6.50;3.50;;;;;;;;;;6240490;22;20622;-89
2022/06/27 01:08:57;;;;;;;6.38;3.80;;;;;;;;;;6242007;23;20171;-89
2022/06/27 01:12:03;;;;;;;3.92;3.28;;;;;;;;;;6242293;23;20175;-89
2022/06/27 01:15:10;;;;;;;6.95;3.67;;;;;;;;;;6241436;23;20178;-86
2022/06/27 01:18:15;;;;;;;5.93;3.30;;;;;;;;;;6241660;23;20166;-88
2022/06/27 01:21:22;;;;;;;4.70;3.35;;;;;;;;;;6259602;22;20151;-88
2022/06/27 01:24:29;;;;;;;6.03;3.42;;;;;;;;;;6241976;23;20248;-89
2022/06/27 01:27:37;;;;;;;5.22;3.30;;;;;;;;;;6243001;23;20210;-88
2022/06/27 01:30:42;;;;;;;4.63;2.83;;;;;;;;;;6241358;23;20170;-89
2022/06/27 01:33:47;;;;;;;4.82;3.00;;;;;;;;;;6240409;23;20170;-87
2022/06/27 01:36:52;;;;;;;4.53;3.20;;;;;;;;;;6256933;22;20223;-88
2022/06/27 01:40:00;;;;;;;4.00;3.05;;;;;;;;;;6239070;23;20302;-88
2022/06/27 01:43:07;;;;;;;8.13;3.25;;;;;;;;;;6239896;23;20170;-90
2022/06/27 01:46:12;;;;;;;8.00;3.28;;;;;;;;;;6239442;23;20261;-88
2022/06/27 01:49:18;;;;;;;5.95;3.13;;;;;;;;;;6238730;23;20282;-86
2022/06/27 01:52:23;;;;;;;5.35;3.58;;;;;;;;;;6239433;23;20698;-90
2022/06/27 01:55:30;;;;;;;7.05;3.63;;;;;;;;;;6238620;23;20190;-89
2022/06/27 01:58:36;;;;;;;7.75;3.38;;;;;;;;;;6239250;22;20290;-88
2022/06/27 02:01:42;;;;;;;6.07;4.13;;;;;;;;;;6241234;23;20175;-88
2022/06/27 02:04:48;;;;;;;6.72;3.50;;;;;;;;;;6239539;23;20191;-90
2022/06/27 02:07:53;;;;;;;9.10;3.78;;;;;;;;;;6241559;23;20458;-89
2022/06/27 02:11:00;;;;;;;7.50;3.50;;;;;;;;;;6241010;23;20163;-90
2022/06/27 02:14:05;;;;;;;8.10;4.03;;;;;;;;;;6240140;23;20166;-89
2022/06/27 02:17:11;;;;;;;9.45;4.25;;;;;;;;;;6239481;23;20174;-87
2022/06/27 02:20:16;;;;;;;7.63;4.43;;;;;;;;;;6240429;23;20182;-88
2022/06/27 02:23:22;;;;;;;7.32;4.32;;;;;;;;;;6239489;23;20171;-87
2022/06/27 02:26:31;;;;;;;8.05;4.20;;;;;;;;;;6238827;23;20163;-89
2022/06/27 02:29:36;;;;;;;6.85;4.70;;;;;;;;;;6239841;22;20198;-89
2022/06/27 02:32:42;;;;;;;8.93;4.60;;;;;;;;;;6238920;22;20168;-89
2022/06/27 02:35:48;;;;;;;10.45;4.95;;;;;;;;;;6241473;23;20170;-90
2022/06/27 02:38:54;;;;;;;9.32;4.40;;;;;;;;;;6241856;23;20548;-88
2022/06/27 02:42:22;;;;;;;8.25;4.30;;;;;;;;;;6240996;23;20174;-89
2022/06/27 02:45:29;;;;;;;12.35;5.15;;;;;;;;;;6240788;23;20212;-87
2022/06/27 02:48:35;;;;;;;8.50;4.03;;;;;;;;;;6241096;23;20166;-88
2022/06/27 02:51:43;;;;;;;5.93;4.15;;;;;;;;;;6242843;23;20162;-90
2022/06/27 02:54:49;;;;;;;7.32;3.80;;;;;;;;;;6240991;23;20561;-88
2022/06/27 02:58:01;;;;;;;6.82;3.38;;;;;;;;;;6239860;23;20619;-89
2022/06/27 03:01:07;;;;;;;6.47;3.63;;;;;;;;;;6240786;22;20166;-88
2022/06/27 03:04:13;;;;;;;8.98;3.75;;;;;;;;;;6238960;23;20288;-89
2022/06/27 03:07:18;;;;;;;9.18;4.10;;;;;;;;;;6240205;23;20202;-90
2022/06/27 03:10:23;;;;;;;7.25;4.50;;;;;;;;;;6239522;23;20167;-88
2022/06/27 03:13:30;;;;;;;7.40;4.60;;;;;;;;;;6238585;23;20166;-89
2022/06/27 03:16:37;;;;;;;13.25;4.40;;;;;;;;;;6240554;23;20173;-90
2022/06/27 03:19:42;;;;;;;9.55;4.40;;;;;;;;;;6239626;23;20604;-90
2022/06/27 03:23:08;;;;;;;6.90;4.30;;;;;;;;;;6258318;23;20301;-89
2022/06/27 03:26:21;;;;;;;7.05;4.53;;;;;;;;;;6240781;23;20162;-88
2022/06/27 03:29:30;;;;;;;8.68;4.35;;;;;;;;;;6239599;23;20167;-90
2022/06/27 03:32:36;;;;;;;8.27;4.63;;;;;;;;;;6239330;22;20154;-90
2022/06/27 03:35:46;;;;;;;7.65;3.88;;;;;;;;;;6239680;22;20257;-88
2022/06/27 03:38:51;;;;;;;8.63;4.28;;;;;;;;;;6240555;23;20170;-88
2022/06/27 03:41:57;;;;;;;11.93;4.63;;;;;;;;;;6239075;23;20606;-88
2022/06/27 03:45:04;;;;;;;5.78;3.70;;;;;;;;;;6237821;23;20194;-89
2022/06/27 03:49:59;;;;;;;7.22;3.90;;;;;;;;;;6240085;23;20171;-89
2022/06/27 03:51:57;;;;;;;10.77;3.80;;;;;;;;;;6240530;23;20261;-89
2022/06/27 03:55:02;;;;;;;6.88;3.85;;;;;;;;;;6259465;23;20190;-87
2022/06/27 03:58:07;;;;;;;8.95;3.90;;;;;;;;;;6240875;23;20221;-88
2022/06/27 04:01:45;;;;;;;7.43;4.00;;;;;;;;;;6240706;23;20169;-90
2022/06/27 04:04:53;;;;;;;10.10;3.80;;;;;;;;;;6241066;23;20274;-89
2022/06/27 04:07:59;;;;;;;9.85;3.83;;;;;;;;;;6241598;23;20171;-88
2022/06/27 04:11:10;;;;;;;5.13;4.10;;;;;;;;;;6240806;23;20301;-89
2022/06/27 04:14:19;;;;;;;9.48;4.07;;;;;;;;;;6239825;23;20182;-89
2022/06/27 04:18:00;;;;;;;7.75;3.88;;;;;;;;;;6169742;23;20177;-89
2022/06/27 04:21:26;;;;;;;7.75;4.53;;;;;;;;;;6244172;22;20256;-90
2022/06/27 04:24:39;;;;;;;10.32;4.22;;;;;;;;;;6241715;23;20194;-89
2022/06/27 04:27:46;;;;;;;7.57;4.10;;;;;;;;;;6258980;22;20213;-90
2022/06/27 04:30:53;;;;;;;11.18;4.43;;;;;;;;;;6240159;23;20178;-89
2022/06/27 04:33:58;;;;;;;7.78;4.47;;;;;;;;;;6239345;23;20490;-91
2022/06/27 04:37:06;;;;;;;7.93;3.90;;;;;;;;;;6257848;23;20286;-90
2022/06/27 04:40:22;;;;;;;10.93;4.55;;;;;;;;;;6239614;23;20169;-89
2022/06/27 04:43:27;;;;;;;8.52;4.20;;;;;;;;;;6237976;22;20170;-90
2022/06/27 04:46:32;;;;;;;8.57;4.30;;;;;;;;;;6239889;23;20614;-90
2022/06/27 04:49:44;;;;;;;7.25;4.05;;;;;;;;;;6259080;22;20169;-88
2022/06/27 04:52:51;;;;;;;6.53;4.05;;;;;;;;;;6238768;23;20170;-89
2022/06/27 04:55:57;;;;;;;6.95;4.65;;;;;;;;;;6239106;23;20571;-89
2022/06/27 04:59:03;;;;;;;10.05;4.97;;;;;;;;;;6259294;23;20163;-88
2022/06/27 05:02:11;;;;;;;9.55;5.00;;;;;;;;;;6257587;23;20238;-87
2022/06/27 05:05:16;;;;;;;11.35;4.65;;;;;;;;;;6239404;23;20194;-88
2022/06/27 05:08:23;;;;;;;7.80;4.35;;;;;;;;;;6240065;23;20590;-89
2022/06/27 05:11:30;;;;;;;8.98;4.45;;;;;;;;;;6241008;23;20162;-89
2022/06/27 05:14:38;;;;;;;10.60;4.28;;;;;;;;;;6242518;23;20166;-90
2022/06/27 05:17:44;;;;;;;8.98;4.57;;;;;;;;;;6243299;23;20509;-89
2022/06/27 05:20:49;;;;;;;7.03;3.55;;;;;;;;;;6244004;23;20250;-92
2022/06/27 05:23:56;;;;;;;9.18;4.05;;;;;;;;;;6246652;23;20185;-89
2022/06/27 05:27:01;;;;;;;8.40;4.38;;;;;;;;;;6244402;23;20174;-90
2022/06/27 05:30:07;;;;;;;8.20;4.13;;;;;;;;;;6241819;23;20201;-91
2022/06/27 05:33:16;;;;;;;6.53;3.65;;;;;;;;;;6239033;23;20192;-90
2022/06/27 05:36:22;;;;;;;6.65;3.83;;;;;;;;;;6243829;22;20207;-89
2022/06/27 05:39:29;;;;;;;8.57;4.00;;;;;;;;;;6242450;23;20178;-91
2022/06/27 05:42:35;;;;;;;9.30;4.00;;;;;;;;;;6244120;23;20206;-89
2022/06/27 05:45:41;;;;;;;5.75;4.03;;;;;;;;;;6240606;23;20229;-89
2022/06/27 05:49:05;;;;;;;7.10;3.50;;;;;;;;;;6259621;23;20634;-91
2022/06/27 05:52:18;;;;;;;6.43;3.90;;;;;;;;;;6241648;23;20249;-88
2022/06/27 05:55:25;;;;;;;8.32;3.53;;;;;;;;;;6239034;23;20185;-86
2022/06/27 05:58:31;;;;;;;7.80;3.70;;;;;;;;;;6239756;23;20498;-90
2022/06/27 06:01:39;;;;;;;11.32;3.80;;;;;;;;;;6241874;23;20171;-91
2022/06/27 06:04:45;;;;;;;9.00;3.78;;;;;;;;;;6237097;23;20164;-89
2022/06/27 06:07:52;;;;;;;5.63;3.83;;;;;;;;;;6236364;22;20166;-90
2022/06/27 06:10:59;;;;;;;7.93;4.05;;;;;;;;;;6236498;23;20505;-91
2022/06/27 06:14:04;;;;;;;6.65;3.38;;;;;;;;;;6236651;23;20217;-89
2022/06/27 06:17:12;;;;;;;8.27;3.80;;;;;;;;;;6237472;23;20210;-88
2022/06/27 06:20:17;;;;;;;10.23;4.18;;;;;;;;;;6236542;23;20193;-89
2022/06/27 06:23:25;;;;;;;9.85;3.97;;;;;;;;;;6238189;23;20250;-90
2022/06/27 06:26:32;;;;;;;7.20;3.65;;;;;;;;;;6237175;23;20229;-90
2022/06/27 06:29:39;;;;;;;11.73;3.78;;;;;;;;;;6236910;23;20178;-87
2022/06/27 06:32:45;;;;;;;7.03;3.30;;;;;;;;;;6237518;23;20166;-89
2022/06/27 06:35:51;;;;;;;10.55;3.60;;;;;;;;;;6238972;23;20174;-89
2022/06/27 06:38:57;;;;;;;10.20;3.42;;;;;;;;;;6238772;23;20217;-90
2022/06/27 06:42:04;;;;;;;8.75;3.55;;;;;;;;;;6254250;23;20159;-88
2022/06/27 06:45:11;;;;;;;7.93;3.00;;;;;;;;;;6236407;23;20688;-88
2022/06/27 06:48:23;;;;;;;6.15;2.95;;;;;;;;;;6237220;23;20171;-88
2022/06/27 06:51:31;;;;;;;11.68;3.30;;;;;;;;;;6237544;23;20178;-88
2022/06/27 06:54:36;;;;;;;13.30;3.00;;;;;;;;;;6235386;23;20194;-89
2022/06/27 06:57:43;;;;;;;11.80;3.53;;;;;;;;;;6237845;23;20214;-89
2022/06/27 07:00:48;;;;;;;9.40;3.33;;;;;;;;;;6254498;23;20247;-89
2022/06/27 07:03:54;;;;;;;3.80;2.63;;;;;;;;;;6237879;23;20170;-88
2022/06/27 07:06:59;;;;;;;6.60;3.35;;;;;;;;;;6239328;23;20202;-88
2022/06/27 07:10:06;;;;;;;6.82;3.00;;;;;;;;;;6239242;23;20229;-89
2022/06/27 07:13:13;;;;;;;3.67;2.45;;;;;;;;;;6237577;23;20166;-90
2022/06/27 07:16:18;;;;;;;4.55;2.60;;;;;;;;;;6233934;23;20166;-90
2022/06/27 07:19:24;;;;;;;4.85;2.20;;;;;;;;;;6236213;23;20170;-85
2022/06/27 07:22:30;;;;;;;3.78;2.50;;;;;;;;;;6237217;23;20244;-89
2022/06/27 07:25:36;;;;;;;4.43;2.53;;;;;;;;;;6238886;23;20216;-89
2022/06/27 07:28:42;;;;;;;5.32;2.65;;;;;;;;;;6237614;23;20166;-90
2022/06/27 07:31:54;;;;;;;4.35;2.40;;;;;;;;;;6240097;23;20177;-89
2022/06/27 07:35:00;;;;;;;5.18;2.30;;;;;;;;;;6236402;23;20248;-88
2022/06/27 07:38:06;;;;;;;6.28;2.60;;;;;;;;;;6237248;23;20196;-88
2022/06/27 07:41:10;;;;;;;7.25;2.40;;;;;;;;;;6237521;23;20622;-89
2022/06/27 07:44:17;;;;;;;7.68;2.72;;;;;;;;;;6238836;23;20178;-89
2022/06/27 07:47:22;;;;;;;6.75;2.70;;;;;;;;;;6236549;23;20193;-88
2022/06/27 07:50:39;;;;;;;5.28;2.92;;;;;;;;;;6237303;23;20170;-88
2022/06/27 07:53:46;;;;;;;6.47;2.72;;;;;;;;;;6236615;23;20197;-90
2022/06/27 07:56:52;;;;;;;7.20;3.17;;;;;;;;;;6238499;23;20173;-89
2022/06/27 07:59:58;;;;;;;5.57;2.63;;;;;;;;;;6237343;23;20244;-88
2022/06/27 08:03:36;;;;;;;5.13;2.90;;;;;;;;;;6239708;23;20185;-89
2022/06/27 08:06:30;;;;;;;5.32;2.88;;;;;;;;;;6239913;22;20193;-88
2022/06/27 08:09:38;;;;;;;6.15;2.83;;;;;;;;;;6256953;23;20197;-89
2022/06/27 08:12:43;;;;;;;5.88;2.83;;;;;;;;;;6239642;22;20621;-89
2022/06/27 08:15:50;;;;;;;6.18;2.30;;;;;;;;;;6241732;23;20165;-89
2022/06/27 08:18:55;;;;;;;5.43;2.58;;;;;;;;;;6239014;23;20153;-89
2022/06/27 08:22:00;;;;;;;6.68;2.60;;;;;;;;;;6259476;23;20174;-88
2022/06/27 08:25:05;;;;;;;5.25;2.63;;;;;;;;;;6239222;23;20166;-89
2022/06/27 08:28:12;;;;;;;7.13;2.90;;;;;;;;;;6236449;23;20182;-90
2022/06/27 08:31:18;;;;;;;4.65;2.72;;;;;;;;;;6237797;23;20166;-90
2022/06/27 08:34:24;;;;;;;3.83;2.42;;;;;;;;;;6240419;22;20244;-89
2022/06/27 08:37:29;;;;;;;4.55;2.97;;;;;;;;;;6259840;23;20170;-90
2022/06/27 08:40:34;;;;;;;5.60;2.63;;;;;;;;;;6241133;23;20168;-90
2022/06/27 08:43:40;;;;;;;7.82;2.67;;;;;;;;;;6239939;23;20161;-90
2022/06/27 08:46:47;;;;;;;3.65;2.58;;;;;;;;;;6240757;22;20254;-89
2022/06/27 08:49:52;;;;;;;6.95;2.55;;;;;;;;;;6238573;23;20199;-89
2022/06/27 08:52:58;;;;;;;5.93;2.58;;;;;;;;;;6238943;23;20538;-90
2022/06/27 08:56:03;;;;;;;5.57;2.53;;;;;;;;;;6238733;23;20250;-90
2022/06/27 08:59:09;;;;;;;4.63;2.25;;;;;;;;;;6238108;23;20609;-90
2022/06/27 09:02:21;;;;;;;3.17;2.25;;;;;;;;;;6236745;23;20162;-90
2022/06/27 09:05:27;;;;;;;5.07;2.55;;;;;;;;;;6235904;23;20165;-90
2022/06/27 09:08:34;;;;;;;7.93;2.38;;;;;;;;;;6238286;23;20208;-90
2022/06/27 09:11:41;;;;;;;7.00;2.60;;;;;;;;;;6238150;23;20361;-90
2022/06/27 09:14:46;;;;;;;4.22;2.45;;;;;;;;;;6239484;23;20235;-90
2022/06/27 09:18:06;;;;;;;3.00;2.20;;;;;;;;;;6239559;23;20182;-90
2022/06/27 09:21:13;;;;;;;5.70;2.25;;;;;;;;;;6239723;22;20150;-90
2022/06/27 09:24:19;;;;;;;4.05;2.60;;;;;;;;;;6256744;23;20181;-89
2022/06/27 09:27:36;;;;;;;5.00;2.45;;;;;;;;;;6239106;23;20190;-90
2022/06/27 09:30:42;;;;;;;4.50;2.15;;;;;;;;;;6237209;23;20501;-91
2022/06/27 09:34:00;;;;;;;4.10;2.35;;;;;;;;;;6237715;23;20492;-91
2022/06/27 09:37:05;;;;;;;5.10;2.50;;;;;;;;;;6239629;22;20170;-91
2022/06/27 09:40:11;;;;;;;4.00;2.30;;;;;;;;;;6238085;23;20197;-91
2022/06/27 09:43:23;;;;;;;6.10;2.22;;;;;;;;;;6239346;23;20161;-91
2022/06/27 09:46:29;;;;;;;8.35;2.00;;;;;;;;;;6237643;23;20221;-90
2022/06/27 09:49:37;;;;;;;7.40;2.25;;;;;;;;;;6256443;23;20161;-91
2022/06/27 09:52:43;;;;;;;5.13;2.45;;;;;;;;;;6236893;22;20224;-88
2022/06/27 09:55:48;;;;;;;4.07;2.22;;;;;;;;;;6238647;23;20166;-89
2022/06/27 09:58:54;;;;;;;7.35;2.55;;;;;;;;;;6235932;22;20200;-91
2022/06/27 10:02:00;;;;;;;7.10;2.30;;;;;;;;;;6236800;23;20184;-89
2022/06/27 10:05:07;;;;;;;8.68;2.47;;;;;;;;;;6238788;23;20157;-89
2022/06/27 10:08:14;;;;;;;4.32;2.20;;;;;;;;;;6238429;23;20170;-89
2022/06/27 10:11:19;;;;;;;4.65;1.92;;;;;;;;;;6239740;23;20225;-89
2022/06/27 10:14:26;;;;;;;6.53;2.15;;;;;;;;;;6239249;23;20189;-88
2022/06/27 10:17:34;;;;;;;6.68;2.50;;;;;;;;;;6240604;22;20174;-90
2022/06/27 10:20:47;;;;;;;4.75;2.20;;;;;;;;;;6241071;23;20491;-91
2022/06/27 10:24:07;;;;;;;6.13;2.53;;;;;;;;;;6240401;23;20174;-90
2022/06/27 10:27:29;;;;;;;5.60;2.30;;;;;;;;;;6241740;23;20264;-90
2022/06/27 10:30:39;;;;;;;7.97;2.78;;;;;;;;;;6259844;23;20206;-90
2022/06/27 10:33:47;;;;;;;5.82;2.00;;;;;;;;;;6242120;23;20166;-88
2022/06/27 10:37:07;;;;;;;5.65;2.15;;;;;;;;;;6239677;23;20169;-91
2022/06/27 10:40:31;;;;;;;6.55;2.08;;;;;;;;;;6258313;23;20621;-90
2022/06/27 10:43:46;;;;;;;6.35;2.30;;;;;;;;;;6239698;23;20170;-91
2022/06/27 10:46:52;;;;;;;8.68;2.03;;;;;;;;;;6239616;22;20301;-91
2022/06/27 10:50:11;;;;;;;4.45;2.17;;;;;;;;;;6239395;23;20482;-89
2022/06/27 10:53:24;;;;;;;8.30;2.30;;;;;;;;;;6256860;23;20157;-90
2022/06/27 10:56:33;;;;;;;23.70;3.42;;;;;;;;;;6238974;23;20165;-90
2022/06/27 11:00:04;;;;;;;11.05;2.90;;;;;;;;;;6240755;23;20182;-90
2022/06/27 11:03:11;;;;;;;9.23;2.45;;;;;;;;;;6241606;23;20161;-90
2022/06/27 11:06:17;;;;;;;10.18;2.10;;;;;;;;;;6238899;23;20631;-89
2022/06/27 11:09:22;;;;;;;4.75;1.98;;;;;;;;;;6238110;23;20166;-91
2022/06/27 11:12:32;;;;;;;5.70;1.90;;;;;;;;;;6240141;23;20209;-90
2022/06/27 11:15:38;;;;;;;7.13;2.30;;;;;;;;;;6239687;23;20170;-88
2022/06/27 11:18:52;;;;;;;9.48;2.20;;;;;;;;;;6240704;23;20579;-90
2022/06/27 11:21:58;;;;;;;8.60;2.50;;;;;;;;;;6241147;23;20534;-90
2022/06/27 11:25:06;;;;;;;4.50;2.17;;;;;;;;;;6241549;23;20174;-87
2022/06/27 11:31:59;;;;;;;7.00;2.30;;;;;;;;;;6260526;22;20166;-90
2022/06/27 11:35:08;;;;;;;9.90;2.50;;;;;;;;;;6239762;23;20170;-90
2022/06/27 11:38:14;;;;;;;7.10;2.15;;;;;;;;;;6239789;23;20165;-88
2022/06/27 11:41:26;;;;;;;8.77;2.70;;;;;;;;;;6239389;23;20177;-90
2022/06/27 11:44:33;;;;;;;7.97;2.38;;;;;;;;;;6240120;23;20178;-90
2022/06/27 11:47:40;;;;;;;7.38;2.40;;;;;;;;;;6238438;23;20241;-90
2022/06/27 11:50:49;;;;;;;9.93;2.88;;;;;;;;;;6241829;23;20170;-94
2022/06/27 11:53:55;;;;;;;13.30;2.28;;;;;;;;;;6243511;23;20240;-90
2022/06/27 11:57:02;;;;;;;10.35;2.17;;;;;;;;;;6241026;23;20559;-90
2022/06/27 12:00:16;;;;;;;7.78;2.05;;;;;;;;;;6241059;23;20153;-91
2022/06/27 12:03:23;;;;;;;9.30;2.30;;;;;;;;;;6241324;23;20226;-91
2022/06/27 12:06:31;;;;;;;9.05;2.60;;;;;;;;;;6259277;23;20189;-90
2022/06/27 12:09:56;;;;;;;12.30;2.63;;;;;;;;;;6241153;23;20172;-90
2022/06/27 12:13:01;;;;;;;10.13;2.42;;;;;;;;;;6256629;23;20207;-90
2022/06/27 12:16:07;;;;;;;7.15;2.20;;;;;;;;;;6240542;22;20158;-91
2022/06/27 12:19:13;;;;;;;6.38;2.67;;;;;;;;;;6239253;23;20166;-90
2022/06/27 12:22:21;;;;;;;8.48;2.40;;;;;;;;;;6237171;23;20166;-91
2022/06/27 12:25:27;;;;;;;7.95;2.28;;;;;;;;;;6240614;23;20186;-91
2022/06/27 12:28:32;;;;;;;10.25;2.13;;;;;;;;;;6239537;23;20677;-91
2022/06/27 12:31:40;;;;;;;5.20;2.10;;;;;;;;;;6241357;23;20205;-90
2022/06/27 12:34:45;;;;;;;8.85;2.53;;;;;;;;;;6243298;22;20173;-89
2022/06/27 12:37:51;;;;;;;6.75;2.38;;;;;;;;;;6260040;23;20182;-90
2022/06/27 12:41:11;;;;;;;7.05;2.75;;;;;;;;;;6240405;23;20154;-91
2022/06/27 12:44:16;;;;;;;11.68;3.05;;;;;;;;;;6243626;23;20166;-91
2022/06/27 12:47:21;;;;;;;8.38;2.28;;;;;;;;;;6256762;23;20225;-91
2022/06/27 12:50:27;;;;;;;5.18;2.13;;;;;;;;;;6240780;23;20161;-90
2022/06/27 12:53:34;;;;;;;5.07;2.47;;;;;;;;;;6240326;23;20173;-88
2022/06/27 12:56:39;;;;;;;5.28;2.28;;;;;;;;;;6239361;23;20173;-90
2022/06/27 12:59:44;;;;;;;5.50;2.47;;;;;;;;;;6238781;23;20220;-90
2022/06/27 13:02:50;;;;;;;7.85;2.22;;;;;;;;;;6259856;22;20231;-87
2022/06/27 13:05:55;;;;;;;6.20;2.40;;;;;;;;;;6241379;23;20177;-90
2022/06/27 13:09:02;;;;;;;9.50;2.65;;;;;;;;;;6242033;23;20154;-90
2022/06/27 13:12:08;;;;;;;7.90;2.67;;;;;;;;;;6257228;22;20170;-89
2022/06/27 13:15:14;;;;;;;9.77;2.67;;;;;;;;;;6240451;23;20173;-91
2022/06/27 13:18:20;;;;;;;7.45;2.30;;;;;;;;;;6238262;23;20740;-91
2022/06/27 13:21:25;;;;;;;9.15;2.60;;;;;;;;;;6238407;23;20150;-89
2022/06/27 13:24:34;;;;;;;15.07;5.07;;;;;;;;;;6237913;23;20213;-88
2022/06/27 13:27:39;;;;;;;8.70;2.50;;;;;;;;;;6239293;22;20197;-89
2022/06/27 13:30:46;;;;;;;9.00;2.70;;;;;;;;;;6238531;23;20189;-90
2022/06/27 13:33:55;;;;;;;5.35;2.50;;;;;;;;;;6261175;23;20177;-90
2022/06/27 13:37:02;;;;;;;9.77;2.65;;;;;;;;;;6244871;22;20194;-92
2022/06/27 13:40:11;;;;;;;13.85;2.80;;;;;;;;;;6240962;23;20166;-90
2022/06/27 13:43:17;;;;;;;7.22;2.30;;;;;;;;;;6242257;23;20213;-89
2022/06/27 13:46:22;;;;;;;10.15;2.03;;;;;;;;;;6241161;23;20236;-89
2022/06/27 13:49:28;;;;;;;9.38;2.50;;;;;;;;;;6241086;23;20613;-89
2022/06/27 13:52:34;;;;;;;8.73;1.95;;;;;;;;;;6240156;23;20216;-91
2022/06/27 13:55:41;;;;;;;7.95;2.42;;;;;;;;;;6237574;23;20197;-91
2022/06/27 13:58:46;;;;;;;11.23;2.70;;;;;;;;;;6258260;23;20195;-91
2022/06/27 14:01:51;;;;;;;11.38;2.30;;;;;;;;;;6241718;23;20166;-91
2022/06/27 14:04:56;;;;;;;9.48;2.30;;;;;;;;;;6242009;23;20249;-91
2022/06/27 14:08:02;;;;;;;6.82;1.85;;;;;;;;;;6239796;23;20317;-91
2022/06/27 14:11:09;;;;;;;10.07;2.22;;;;;;;;;;6240419;23;20512;-92
2022/06/27 14:14:14;;;;;;;13.98;2.67;;;;;;;;;;6242762;22;20272;-88
2022/06/27 14:17:23;;;;;;;9.15;2.13;;;;;;;;;;6242012;23;20217;-93
2022/06/27 14:20:29;;;;;;;10.25;2.20;;;;;;;;;;6260518;23;20497;-90
2022/06/27 14:23:34;;;;;;;12.05;2.30;;;;;;;;;;6244790;23;20652;-89
2022/06/27 14:26:41;;;;;;;9.32;2.47;;;;;;;;;;6259035;22;20185;-90
2022/06/27 14:29:47;;;;;;;9.25;2.60;;;;;;;;;;6260843;22;20154;-90
2022/06/27 14:32:55;;;;;;;14.30;2.17;;;;;;;;;;6245521;22;20209;-90
2022/06/27 14:36:00;;;;;;;8.60;2.58;;;;;;;;;;6245181;23;20166;-89
2022/06/27 14:39:05;;;;;;;11.98;2.42;;;;;;;;;;6244615;23;20166;-91
2022/06/27 14:42:12;;;;;;;10.13;2.20;;;;;;;;;;6244077;23;20237;-92
2022/06/27 14:45:17;;;;;;;6.70;2.13;;;;;;;;;;6244539;22;20166;-92
2022/06/27 14:48:24;;;;;;;15.77;2.58;;;;;;;;;;6243752;22;20201;-87
2022/06/27 14:51:31;;;;;;;10.80;2.60;;;;;;;;;;6244837;23;20652;-89
2022/06/27 14:54:36;;;;;;;11.30;2.88;;;;;;;;;;6244001;23;20185;-92
2022/06/27 14:57:44;;;;;;;10.40;2.33;;;;;;;;;;6244346;22;20226;-90
2022/06/27 15:00:49;;;;;;;17.35;2.58;;;;;;;;;;6244396;22;20165;-89
2022/06/27 15:03:54;;;;;;;9.35;2.92;;;;;;;;;;6243724;22;20169;-92
2022/06/27 15:07:00;;;;;;;12.60;2.55;;;;;;;;;;6245257;23;20161;-91
2022/06/27 15:10:05;;;;;;;10.15;2.95;;;;;;;;;;6245128;23;20169;-90
2022/06/27 15:13:14;;;;;;;11.85;2.88;;;;;;;;;;6244371;22;20345;-91
2022/06/27 15:16:20;;;;;;;9.57;2.47;;;;;;;;;;6245004;23;20228;-90
2022/06/27 15:19:26;;;;;;;7.30;2.25;;;;;;;;;;6245359;22;20154;-90
2022/06/27 15:23:13;;;;;;;10.23;2.72;;;;;;;;;;6244138;22;20297;-87
2022/06/27 15:26:19;;;;;;;6.40;2.00;;;;;;;;;;6246220;23;20189;-88
2022/06/27 15:29:27;;;;;;;8.18;2.22;;;;;;;;;;6260817;23;20213;-89
2022/06/27 15:32:34;;;;;;;17.30;5.60;;;;;;;;;;6246080;22;20162;-91
2022/06/27 15:35:39;;;;;;;11.75;2.75;;;;;;;;;;6245379;22;20178;-85
2022/06/27 15:38:45;;;;;;;10.07;2.25;;;;;;;;;;6246257;23;20170;-90
2022/06/27 15:41:51;;;;;;;12.88;2.10;;;;;;;;;;6246697;23;20194;-91
2022/06/27 15:44:58;;;;;;;12.73;2.75;;;;;;;;;;6262514;22;20162;-89
2022/06/27 15:48:06;;;;;;;14.60;4.47;;;;;;;;;;6262587;22;20197;-90
2022/06/27 15:51:13;;;;;;;9.27;2.60;;;;;;;;;;6245640;22;20211;-90
2022/06/27 15:54:18;;;;;;;9.55;2.28;;;;;;;;;;6244255;22;20185;-87
2022/06/27 15:57:23;;;;;;;9.95;2.55;;;;;;;;;;6245210;23;20173;-88
2022/06/27 16:00:30;;;;;;;9.07;2.10;;;;;;;;;;6245800;23;20256;-91
2022/06/27 16:03:36;;;;;;;14.20;2.20;;;;;;;;;;6244077;23;20205;-91
2022/06/27 16:06:42;;;;;;;9.23;2.50;;;;;;;;;;6243139;23;20218;-91
2022/06/27 16:09:47;;;;;;;11.15;3.17;;;;;;;;;;6243151;23;20170;-90
2022/06/27 16:12:56;;;;;;;14.75;7.25;;;;;;;;;;6261318;23;20236;-90
2022/06/27 16:16:02;;;;;;;11.02;4.28;;;;;;;;;;6244312;23;20162;-89
2022/06/27 16:19:07;;;;;;;10.95;2.55;;;;;;;;;;6244436;23;20262;-89
2022/06/27 16:22:12;;;;;;;11.07;2.60;;;;;;;;;;6260122;23;20212;-91
2022/06/27 16:25:18;;;;;;;18.13;2.63;;;;;;;;;;6243956;23;20223;-90
2022/06/27 16:28:23;;;;;;;11.73;2.33;;;;;;;;;;6242897;22;20287;-86
2022/06/27 16:31:44;;;;;;;11.43;2.63;;;;;;;;;;6243476;23;20166;-89
2022/06/27 16:34:50;;;;;;;14.90;3.03;;;;;;;;;;6244750;23;20158;-89
2022/06/27 16:37:56;;;;;;;9.10;2.40;;;;;;;;;;6247068;22;20174;-89
2022/06/27 16:41:05;;;;;;;11.35;2.25;;;;;;;;;;6245173;22;20162;-89
2022/06/27 16:44:09;;;;;;;10.40;2.63;;;;;;;;;;6245545;22;20166;-87
2022/06/27 16:47:16;;;;;;;11.88;2.95;;;;;;;;;;6243608;22;20166;-90
2022/06/27 16:50:21;;;;;;;14.13;3.15;;;;;;;;;;6242849;23;20253;-89
2022/06/27 16:53:26;;;;;;;9.02;2.75;;;;;;;;;;6243527;23;20665;-88
2022/06/27 16:56:34;;;;;;;11.70;2.80;;;;;;;;;;6243062;23;20205;-88
2022/06/27 16:59:40;;;;;;;10.65;3.05;;;;;;;;;;6244620;22;20202;-90
2022/06/27 17:02:47;;;;;;;11.77;2.83;;;;;;;;;;6262486;22;20149;-90
2022/06/27 17:05:53;;;;;;;12.35;3.35;;;;;;;;;;6245221;23;20238;-90
2022/06/27 17:08:59;;;;;;;10.57;3.10;;;;;;;;;;6246345;23;20193;-90
2022/06/27 17:12:04;;;;;;;13.18;3.15;;;;;;;;;;6245658;23;20193;-91
2022/06/27 17:15:10;;;;;;;14.00;2.47;;;;;;;;;;6244878;23;20165;-91
2022/06/27 17:18:17;;;;;;;14.00;2.90;;;;;;;;;;6244149;23;20173;-87
2022/06/27 17:21:24;;;;;;;9.95;2.88;;;;;;;;;;6262147;22;20201;-91
2022/06/27 17:24:29;;;;;;;11.65;3.47;;;;;;;;;;6244571;23;20608;-91
2022/06/27 17:27:34;;;;;;;12.65;3.22;;;;;;;;;;6243635;23;20166;-90
2022/06/27 17:30:41;;;;;;;6.35;2.70;;;;;;;;;;6241910;23;20169;-91
2022/06/27 17:33:48;;;;;;;11.77;2.58;;;;;;;;;;6244146;23;20191;-89
2022/06/27 17:36:53;;;;;;;6.47;2.80;;;;;;;;;;6262117;22;20154;-92
2022/06/27 17:39:58;;;;;;;8.52;2.50;;;;;;;;;;6243447;22;20165;-91
2022/06/27 17:43:04;;;;;;;15.07;2.95;;;;;;;;;;6243791;23;20166;-89
2022/06/27 17:46:10;;;;;;;12.88;2.72;;;;;;;;;;6262061;22;20161;-88
2022/06/27 17:49:42;;;;;;;9.77;2.75;;;;;;;;;;6242355;23;20193;-90
2022/06/27 17:52:58;;;;;;;16.15;3.00;;;;;;;;;;6242970;22;20170;-90
2022/06/27 17:56:14;;;;;;;9.75;2.70;;;;;;;;;;6260139;22;20174;-90
2022/06/27 17:59:43;;;;;;;10.13;2.90;;;;;;;;;;6242139;23;20170;-90
2022/06/27 18:03:00;;;;;;;13.88;3.10;;;;;;;;;;6241007;22;20191;-88
2022/06/27 18:06:13;;;;;;;15.02;3.10;;;;;;;;;;6242103;23;20178;-90
2022/06/27 18:09:46;;;;;;;8.57;3.10;;;;;;;;;;6246368;23;20198;-91
2022/06/27 18:13:17;;;;;;;10.90;2.70;;;;;;;;;;6243730;23;20165;-90
2022/06/27 18:16:26;;;;;;;12.95;2.80;;;;;;;;;;6241927;23;20170;-91
2022/06/27 18:19:34;;;;;;;10.48;3.10;;;;;;;;;;6246543;22;20166;-89
2022/06/27 18:22:54;;;;;;;11.30;3.17;;;;;;;;;;6246821;23;20175;-90
2022/06/27 18:26:14;;;;;;;15.20;2.80;;;;;;;;;;6263458;23;20676;-90
2022/06/27 18:40:08;;;;;;;13.60;3.58;;;;;;;;;;6262897;22;20246;-90
2022/06/27 18:43:34;;;;;;;8.75;3.45;;;;;;;;;;6260881;22;20170;-91
2022/06/27 18:46:56;;;;;;;8.60;3.78;;;;;;;;;;6242889;23;20219;-91
2022/06/27 18:50:08;;;;;;;10.10;3.30;;;;;;;;;;6243049;22;20749;-89
2022/06/27 18:53:22;;;;;;;7.85;2.70;;;;;;;;;;6241567;23;20169;-89
2022/06/27 22:32:46;;;;;;;12.77;2.92;;;;;;;;;;6124421;22;1555246;-88